Time;durP1;ratioP1;P1;durP2;ratioP2;P2;SDS_P1;SDS_P2;PMS_P1;PMS_P2;Temp;Humidity;BMP_temperature;BMP_pressure;BME280_temperature;BME280_humidity;BME280_pressure;Samples;Min_cycle;Max_cycle;Signal;HPM_P1;HPM_P2
2023/02/14 00:02:07;;;;;;;106.10;53.95;;;154.20;2252.80;;;;;;5047031;28;20036;-65
2023/02/14 00:04:33;;;;;;;80.50;40.58;;;154.30;2252.80;;;;;;5040692;28;20044;-62
2023/02/14 00:07:00;;;;;;;54.85;29.15;;;154.40;2252.80;;;;;;5038871;28;20024;-64
2023/02/14 00:09:26;;;;;;;34.33;19.27;;;154.50;2252.80;;;;;;5041481;28;20037;-63
2023/02/14 00:11:51;;;;;;;60.80;31.83;;;154.40;2252.80;;;;;;5032251;28;20036;-61
2023/02/14 00:17:02;;;;;;;255.82;124.57;;;154.50;2252.80;;;;;;5037333;28;20178;-60
2023/02/14 00:19:28;;;;;;;66.28;33.78;;;179.20;2252.80;;;;;;5039356;28;20037;-68
2023/02/14 00:21:54;;;;;;;27.30;19.20;;;154.50;2252.80;;;;;;5037914;28;20415;-67
2023/02/14 00:24:23;;;;;;;50.22;29.40;;;154.50;2252.80;;;;;;5040709;28;20029;-68
2023/02/14 00:26:50;;;;;;;153.38;79.00;;;154.40;2252.80;;;;;;5043445;28;20036;-68
2023/02/14 00:29:19;;;;;;;124.47;65.40;;;179.30;2252.80;;;;;;5041894;28;20452;-65
2023/02/14 00:31:45;;;;;;;52.55;31.55;;;154.40;2252.80;;;;;;5043060;28;20025;-65
2023/02/14 00:34:11;;;;;;;33.38;21.90;;;154.40;2252.80;;;;;;5043376;28;20026;-60
2023/02/14 00:36:37;;;;;;;79.43;40.83;;;154.40;2252.80;;;;;;5041762;28;20029;-66
2023/02/14 00:39:04;;;;;;;41.20;23.45;;;154.50;2252.80;;;;;;5043095;28;20017;-67
2023/02/14 00:41:30;;;;;;;32.05;19.15;;;154.40;2252.80;;;;;;5043371;28;20037;-59
2023/02/14 00:43:56;;;;;;;119.95;60.33;;;154.40;2252.80;;;;;;5041478;28;20436;-58
2023/02/14 00:46:23;;;;;;;155.55;75.07;;;154.50;2252.80;;;;;;5042993;28;20033;-58
2023/02/14 00:48:49;;;;;;;108.47;54.72;;;154.50;2252.80;;;;;;5043017;28;20452;-66
2023/02/14 00:51:17;;;;;;;231.95;115.13;;;179.20;2252.80;;;;;;5041418;28;20036;-61
2023/02/14 00:53:43;;;;;;;199.48;86.63;;;154.50;2252.80;;;;;;5043274;28;20021;-58
2023/02/14 00:56:10;;;;;;;35.28;21.02;;;179.20;2252.80;;;;;;5043160;28;20026;-67
2023/02/14 00:58:35;;;;;;;82.78;40.05;;;154.50;2252.80;;;;;;5041371;28;20368;-67
2023/02/14 01:01:02;;;;;;;138.18;61.45;;;179.20;2252.80;;;;;;5040327;28;20116;-65
2023/02/14 01:03:28;;;;;;;51.88;26.65;;;179.30;2252.80;;;;;;5042434;28;20057;-61
2023/02/14 01:05:54;;;;;;;50.53;25.75;;;179.20;2252.80;;;;;;5041357;28;20037;-64
2023/02/14 01:08:20;;;;;;;121.75;57.58;;;179.40;2252.80;;;;;;5041398;28;20033;-66
2023/02/14 01:10:46;;;;;;;39.45;22.17;;;179.40;2252.80;;;;;;5042742;28;20148;-65
2023/02/14 01:13:13;;;;;;;31.17;18.20;;;179.30;2252.80;;;;;;5042474;28;20044;-59
2023/02/14 01:15:41;;;;;;;78.20;39.33;;;179.20;2252.80;;;;;;5038211;28;20111;-67
2023/02/14 01:18:07;;;;;;;1025.70;550.95;;;179.20;2252.80;;;;;;5033220;28;20180;-62
2023/02/14 01:20:33;;;;;;;661.67;361.00;;;179.30;2252.80;;;;;;5033397;28;20037;-59
2023/02/14 01:22:59;;;;;;;64.65;34.65;;;179.40;2252.80;;;;;;5033736;28;20026;-69
2023/02/14 01:25:24;;;;;;;687.17;327.85;;;179.40;2252.80;;;;;;5033300;28;20041;-61
2023/02/14 01:27:50;;;;;;;380.35;160.35;;;179.40;2252.80;;;;;;5033457;28;20033;-59
2023/02/14 01:30:16;;;;;;;140.15;58.33;;;179.30;2252.80;;;;;;5033314;28;20383;-67
2023/02/14 01:32:42;;;;;;;67.43;31.20;;;179.40;2252.80;;;;;;5033131;28;20044;-67
2023/02/14 01:35:09;;;;;;;29.75;19.55;;;179.40;2252.80;;;;;;5033129;28;20068;-59
2023/02/14 01:37:34;;;;;;;74.38;33.20;;;179.40;2252.80;;;;;;5033376;28;20065;-65
2023/02/14 01:40:01;;;;;;;72.47;34.67;;;179.40;2252.80;;;;;;5033278;28;20668;-68
2023/02/14 01:42:27;;;;;;;291.08;134.48;;;179.40;2252.80;;;;;;5032857;28;20116;-59
2023/02/14 01:44:56;;;;;;;46.92;24.50;;;179.20;2252.80;;;;;;5032854;28;20116;-67
2023/02/14 01:47:24;;;;;;;281.38;127.53;;;179.20;2252.80;;;;;;5032940;28;20045;-59
2023/02/14 01:49:56;;;;;;;635.08;332.23;;;179.20;2252.80;;;;;;5032942;28;20033;-62
2023/02/14 01:53:00;;;;;;;78.43;36.13;;;179.30;2252.80;;;;;;5032819;28;20034;-68
2023/02/14 01:55:32;;;;;;;57.13;25.30;;;179.40;2252.80;;;;;;4933640;29;20058;-68
2023/02/14 01:58:15;;;;;;;35.80;17.48;;;179.40;2252.80;;;;;;4933452;29;20032;-68
2023/02/14 02:00:57;;;;;;;387.10;175.23;;;179.20;2252.80;;;;;;4933433;29;20028;-60
2023/02/14 02:03:40;;;;;;;212.73;85.50;;;179.20;2252.80;;;;;;4933130;29;20091;-67
2023/02/14 02:06:15;;;;;;;266.52;103.45;;;179.20;2252.80;;;;;;4933283;29;20048;-59
2023/02/14 02:08:59;;;;;;;42.30;20.58;;;179.20;2252.80;;;;;;4933183;29;20511;-60
2023/02/14 02:11:26;;;;;;;130.40;53.63;;;179.20;2252.80;;;;;;4932834;29;20111;-58
2023/02/14 02:13:52;;;;;;;50.40;28.30;;;154.50;2252.80;;;;;;4933005;29;20044;-59
2023/02/14 02:16:22;;;;;;;22.15;13.48;;;179.30;2252.80;;;;;;4933195;29;20032;-60
2023/02/14 02:19:28;;;;;;;24.83;11.75;;;179.20;2252.80;;;;;;4952408;28;20081;-68
2023/02/14 02:22:05;;;;;;;22.55;11.98;;;179.30;2252.80;;;;;;4952142;29;20079;-67
2023/02/14 02:24:42;;;;;;;21.00;11.85;;;179.40;2252.80;;;;;;4952197;29;20584;-59
2023/02/14 02:27:50;;;;;;;20.88;12.20;;;179.30;2252.80;;;;;;4952345;29;20110;-60
2023/02/14 02:30:33;;;;;;;94.18;46.35;;;179.30;2252.80;;;;;;4894867;29;20043;-65
2023/02/14 02:33:36;;;;;;;75.38;33.13;;;179.20;2252.80;;;;;;4942471;29;20525;-59
2023/02/14 02:36:46;;;;;;;57.58;24.77;;;179.20;2252.80;;;;;;4951857;29;20043;-59
2023/02/14 02:39:39;;;;;;;135.65;60.03;;;154.50;2252.80;;;;;;4951917;29;20028;-67
2023/02/14 02:42:24;;;;;;;23.40;11.90;;;154.50;2252.80;;;;;;4951449;29;20039;-66
2023/02/14 02:45:23;;;;;;;18.58;12.35;;;179.20;2252.80;;;;;;4951597;29;20047;-60
2023/02/14 02:47:55;;;;;;;17.20;11.15;;;154.50;2252.80;;;;;;4951444;28;20438;-66
2023/02/14 02:53:51;;;;;;;24.52;14.48;;;154.30;2252.80;;;;;;4951808;29;20158;-58
2023/02/14 02:56:48;;;;;;;22.23;12.40;;;154.20;2252.80;;;;;;4951648;29;20091;-67
2023/02/14 02:59:22;;;;;;;55.08;26.35;;;154.20;2252.80;;;;;;4951241;29;20422;-59
2023/02/14 03:02:17;;;;;;;21.98;11.38;;;154.20;2252.80;;;;;;4951401;29;20031;-59
2023/02/14 03:04:56;;;;;;;24.55;14.82;;;154.30;2252.80;;;;;;4950667;29;20123;-58
2023/02/14 03:07:33;;;;;;;18.10;12.13;;;154.20;2252.80;;;;;;4971803;28;20594;-64
2023/02/14 03:10:10;;;;;;;18.02;11.15;;;154.20;2252.80;;;;;;4990145;28;20034;-66
2023/02/14 03:13:00;;;;;;;81.88;39.10;;;154.30;2252.80;;;;;;4989894;28;20054;-58
2023/02/14 03:15:26;;;;;;;21.77;13.23;;;154.20;2252.80;;;;;;4989804;28;20030;-60
2023/02/14 03:18:00;;;;;;;44.10;23.10;;;154.20;2252.80;;;;;;4989708;28;20053;-59
2023/02/14 03:20:59;;;;;;;26.85;15.48;;;154.30;2252.80;;;;;;4989937;28;20034;-60
2023/02/14 03:23:37;;;;;;;16.70;11.05;;;154.40;2252.80;;;;;;4989634;28;20034;-66
2023/02/14 03:26:06;;;;;;;90.50;46.45;;;154.40;2252.80;;;;;;4989565;28;20030;-59
2023/02/14 03:28:46;;;;;;;50.30;22.65;;;154.50;2252.80;;;;;;4990630;28;20113;-59
2023/02/14 03:31:42;;;;;;;20.80;11.25;;;154.50;2252.80;;;;;;5030890;28;20533;-68
2023/02/14 03:34:16;;;;;;;20.15;9.88;;;179.20;2252.80;;;;;;5031024;28;20572;-59
2023/02/14 03:36:52;;;;;;;15.23;9.30;;;154.50;2252.80;;;;;;5031029;28;20039;-63
2023/02/14 03:39:28;;;;;;;21.75;13.23;;;179.20;2252.80;;;;;;5031261;28;20426;-58
2023/02/14 03:42:27;;;;;;;39.58;21.02;;;179.30;2252.80;;;;;;5030649;28;20109;-59
2023/02/14 03:44:57;;;;;;;84.43;39.30;;;154.50;2252.80;;;;;;5050392;28;20053;-67
2023/02/14 03:47:26;;;;;;;26.73;16.42;;;154.50;2252.80;;;;;;5050444;28;20025;-61
2023/02/14 03:50:08;;;;;;;16.48;9.57;;;154.50;2252.80;;;;;;5050590;28;20028;-59
2023/02/14 03:52:36;;;;;;;37.05;20.27;;;179.20;2252.80;;;;;;5050517;28;20033;-58
2023/02/14 03:55:05;;;;;;;24.70;15.00;;;179.20;2252.80;;;;;;5050543;28;20042;-59
2023/02/14 03:58:00;;;;;;;21.75;12.32;;;179.40;2252.80;;;;;;5050526;28;20491;-59
2023/02/14 04:00:29;;;;;;;24.73;13.25;;;179.40;2252.80;;;;;;5049709;28;20060;-59
2023/02/14 04:03:00;;;;;;;14.18;9.35;;;179.30;2252.80;;;;;;5050330;28;20036;-59
2023/02/14 04:05:27;;;;;;;146.55;71.95;;;179.20;2252.80;;;;;;5050476;28;20056;-59
2023/02/14 04:07:55;;;;;;;41.17;21.77;;;179.20;2252.80;;;;;;5050403;28;20032;-59
2023/02/14 04:10:23;;;;;;;180.13;88.18;;;179.20;2252.80;;;;;;5054261;28;20471;-58
2023/02/14 04:12:49;;;;;;;31.13;15.18;;;179.20;2252.80;;;;;;5070320;28;20033;-59
2023/02/14 04:15:15;;;;;;;60.97;29.02;;;179.20;2252.80;;;;;;5070316;28;20368;-59
2023/02/14 04:20:26;;;;;;;22.17;12.20;;;179.30;2252.80;;;;;;5070910;28;20028;-66
2023/02/14 04:22:52;;;;;;;19.20;9.32;;;179.30;2252.80;;;;;;5070314;28;20024;-59
2023/02/14 04:25:20;;;;;;;13.55;8.07;;;179.30;2252.80;;;;;;5070403;28;20060;-66
2023/02/14 04:27:46;;;;;;;19.52;12.10;;;179.50;2252.80;;;;;;5070287;28;20055;-63
2023/02/14 04:30:12;;;;;;;24.08;13.75;;;179.40;2252.80;;;;;;5070116;28;20099;-59
2023/02/14 04:32:38;;;;;;;77.85;37.17;;;179.30;2252.80;;;;;;5070247;28;20178;-61
2023/02/14 04:35:05;;;;;;;23.45;11.40;;;179.30;2252.80;;;;;;5070112;28;20031;-64
2023/02/14 04:37:30;;;;;;;19.50;10.00;;;179.40;2252.80;;;;;;5069777;28;20029;-59
2023/02/14 04:39:56;;;;;;;22.48;11.80;;;179.40;2252.80;;;;;;5069902;28;20155;-59
2023/02/14 04:42:22;;;;;;;22.85;12.55;;;179.30;2252.80;;;;;;5069304;28;20035;-59
2023/02/14 04:44:48;;;;;;;27.23;17.95;;;179.30;2252.80;;;;;;5049763;28;20033;-60
2023/02/14 04:47:14;;;;;;;16.52;10.60;;;179.30;2252.80;;;;;;5049933;28;20088;-68
2023/02/14 04:49:39;;;;;;;37.03;18.92;;;179.20;2252.80;;;;;;5050052;28;20113;-68
2023/02/14 04:52:05;;;;;;;30.92;16.52;;;179.40;2252.80;;;;;;5049830;28;20021;-59
2023/02/14 04:54:32;;;;;;;26.95;13.93;;;179.40;2252.80;;;;;;5049780;28;20074;-65
2023/02/14 04:56:58;;;;;;;13.50;8.20;;;179.40;2252.80;;;;;;5050005;28;20726;-69
2023/02/14 04:59:24;;;;;;;62.85;33.33;;;179.40;2252.80;;;;;;5049646;28;20052;-58
2023/02/14 05:01:50;;;;;;;24.15;12.98;;;179.40;2252.80;;;;;;5050111;28;20021;-62
2023/02/14 05:04:16;;;;;;;14.32;8.05;;;179.30;2252.80;;;;;;5049848;28;20087;-58
2023/02/14 05:06:41;;;;;;;31.20;17.10;;;179.40;2252.80;;;;;;5049637;28;20029;-57
2023/02/14 05:09:07;;;;;;;46.08;25.42;;;179.40;2252.80;;;;;;5049957;28;20025;-58
2023/02/14 05:11:33;;;;;;;15.55;9.50;;;179.40;2252.80;;;;;;5051782;28;20094;-59
2023/02/14 05:13:58;;;;;;;29.13;16.08;;;179.40;2252.80;;;;;;5053625;28;20029;-61
2023/02/14 05:16:24;;;;;;;13.13;8.18;;;179.30;2252.80;;;;;;5053420;28;20028;-62
2023/02/14 05:18:50;;;;;;;46.53;40.17;;;179.40;2252.80;;;;;;5053820;28;20478;-58
2023/02/14 05:21:16;;;;;;;23.75;11.90;;;179.30;2252.80;;;;;;5053588;28;20029;-69
2023/02/14 05:23:42;;;;;;;22.70;16.80;;;179.40;2252.80;;;;;;5053301;28;20467;-59
2023/02/14 05:26:07;;;;;;;95.78;48.53;;;179.40;2252.80;;;;;;5053236;28;20175;-67
2023/02/14 05:28:33;;;;;;;15.38;8.85;;;179.40;2252.80;;;;;;5053397;28;20071;-58
2023/02/14 05:30:59;;;;;;;52.25;22.48;;;179.40;2252.80;;;;;;5053127;28;20029;-59
2023/02/14 05:33:25;;;;;;;36.30;17.60;;;179.40;2252.80;;;;;;5053189;28;20036;-59
2023/02/14 05:35:51;;;;;;;43.97;19.40;;;179.50;2252.80;;;;;;5053068;28;20031;-60
2023/02/14 05:38:17;;;;;;;27.48;13.18;;;179.60;2252.80;;;;;;5045529;28;20104;-70
2023/02/14 05:40:44;;;;;;;17.98;9.63;;;179.40;2252.80;;;;;;5043824;28;20079;-66
2023/02/14 05:43:10;;;;;;;20.27;9.45;;;179.40;2252.80;;;;;;5035635;28;20054;-67
2023/02/14 05:45:35;;;;;;;129.07;62.67;;;179.40;2252.80;;;;;;5032760;28;20038;-60
2023/02/14 05:48:01;;;;;;;21.23;12.10;;;179.40;2252.80;;;;;;5032934;28;20108;-59
2023/02/14 05:50:27;;;;;;;34.03;14.13;;;179.40;2252.80;;;;;;5033468;28;20025;-59
2023/02/14 05:52:54;;;;;;;19.73;11.60;;;179.30;2252.80;;;;;;5015053;28;20383;-67
2023/02/14 05:55:19;;;;;;;38.85;22.13;;;179.40;2252.80;;;;;;5033044;28;20033;-60
2023/02/14 05:57:46;;;;;;;24.48;9.57;;;179.40;2252.80;;;;;;5032684;28;20034;-59
2023/02/14 06:00:12;;;;;;;14.60;9.65;;;179.50;2252.80;;;;;;5032696;28;20084;-59
2023/02/14 06:02:38;;;;;;;14.90;10.68;;;179.60;2252.80;;;;;;5032794;28;20483;-59
2023/02/14 06:05:04;;;;;;;13.88;7.03;;;179.60;2252.80;;;;;;5032512;28;20053;-59
2023/02/14 06:07:30;;;;;;;11.80;8.32;;;179.60;2252.80;;;;;;5032774;28;20022;-58
2023/02/14 06:09:55;;;;;;;11.73;7.47;;;179.70;2252.80;;;;;;5032765;28;20073;-59
2023/02/14 06:12:21;;;;;;;12.65;7.32;;;179.70;2252.80;;;;;;5032371;28;20472;-59
2023/02/14 06:14:47;;;;;;;34.95;17.38;;;179.60;2252.80;;;;;;5032516;28;20032;-67
2023/02/14 06:17:12;;;;;;;20.13;12.68;;;179.50;2252.80;;;;;;5032452;28;20467;-59
2023/02/14 06:19:38;;;;;;;14.00;7.93;;;179.50;2252.80;;;;;;5032611;28;20045;-59
2023/02/14 06:22:04;;;;;;;18.02;10.20;;;179.50;2252.80;;;;;;5031383;28;20426;-59
2023/02/14 06:24:29;;;;;;;48.33;25.05;;;179.50;2252.80;;;;;;5032400;28;20097;-68
2023/02/14 06:26:55;;;;;;;11.43;6.70;;;179.50;2252.80;;;;;;5032394;28;20082;-59
2023/02/14 06:29:21;;;;;;;12.77;6.80;;;179.60;2252.80;;;;;;5032187;28;20044;-59
2023/02/14 06:31:47;;;;;;;10.73;7.05;;;179.70;2252.80;;;;;;5032076;28;20043;-59
2023/02/14 06:34:13;;;;;;;24.15;13.25;;;179.60;2252.80;;;;;;5032071;28;20026;-68
2023/02/14 06:36:38;;;;;;;14.32;7.63;;;179.50;2252.80;;;;;;5032145;28;20022;-59
2023/02/14 06:39:04;;;;;;;12.23;7.32;;;179.60;2252.80;;;;;;5032031;28;20112;-59
2023/02/14 06:41:30;;;;;;;22.17;11.57;;;179.60;2252.80;;;;;;5032258;28;20429;-60
2023/02/14 06:43:55;;;;;;;18.00;9.95;;;179.70;2252.80;;;;;;5032053;28;20071;-67
2023/02/14 06:46:21;;;;;;;22.58;9.90;;;179.60;2252.80;;;;;;5031769;28;20033;-59
2023/02/14 06:48:47;;;;;;;18.75;8.55;;;179.60;2252.80;;;;;;5032038;28;20360;-59
2023/02/14 06:51:13;;;;;;;16.88;8.90;;;179.70;2252.80;;;;;;5031941;28;20475;-59
2023/02/14 06:53:38;;;;;;;12.30;7.72;;;179.70;2252.80;;;;;;5031974;28;20391;-59
2023/02/14 06:56:04;;;;;;;10.93;7.53;;;179.70;2252.80;;;;;;5031675;28;20033;-60
2023/02/14 06:58:30;;;;;;;11.30;6.55;;;179.80;2252.80;;;;;;5031603;28;20475;-60
2023/02/14 07:00:57;;;;;;;13.73;6.90;;;179.80;2252.80;;;;;;5031847;28;20079;-59
2023/02/14 07:03:24;;;;;;;13.52;9.38;;;179.80;2252.80;;;;;;5031456;28;20036;-59
2023/02/14 07:05:50;;;;;;;11.23;7.53;;;179.80;2252.80;;;;;;5038744;28;20081;-64
2023/02/14 07:08:16;;;;;;;12.82;7.03;;;179.80;2252.80;;;;;;5031617;28;20021;-60
2023/02/14 07:10:41;;;;;;;16.88;8.23;;;179.80;2252.80;;;;;;5044185;28;20100;-65
2023/02/14 07:13:07;;;;;;;13.57;11.00;;;179.80;2252.80;;;;;;5051301;28;20382;-62
2023/02/14 07:15:33;;;;;;;12.75;7.68;;;179.80;2252.80;;;;;;5050958;28;20068;-62
2023/02/14 07:17:58;;;;;;;11.63;7.00;;;179.90;2252.80;;;;;;5051217;28;20025;-66
2023/02/14 07:20:24;;;;;;;11.73;6.90;;;180.00;2252.80;;;;;;5051417;28;20033;-66
2023/02/14 07:22:50;;;;;;;12.00;6.68;;;179.90;2252.80;;;;;;5051186;28;20060;-59
2023/02/14 07:25:16;;;;;;;11.15;6.85;;;179.90;2252.80;;;;;;5051258;28;20037;-60
2023/02/14 07:27:42;;;;;;;11.45;6.35;;;180.00;2252.80;;;;;;5050935;28;20031;-60
2023/02/14 07:30:09;;;;;;;12.90;7.32;;;180.00;2252.80;;;;;;5050930;28;20059;-59
2023/02/14 07:32:37;;;;;;;10.57;6.13;;;180.10;2252.80;;;;;;5051195;28;20067;-58
2023/02/14 07:35:03;;;;;;;12.35;7.35;;;180.10;2252.80;;;;;;5050680;28;20037;-59
2023/02/14 07:37:31;;;;;;;15.57;7.43;;;180.00;2252.80;;;;;;5051144;28;20080;-61
2023/02/14 07:39:57;;;;;;;11.52;7.88;;;180.10;2252.80;;;;;;5050992;28;20102;-60
2023/02/14 07:42:23;;;;;;;12.02;6.53;;;204.80;2252.80;;;;;;5050482;28;20475;-59
2023/02/14 07:44:48;;;;;;;11.02;6.28;;;180.10;2252.80;;;;;;5050823;28;20025;-65
2023/02/14 07:47:14;;;;;;;11.60;6.90;;;180.10;2252.80;;;;;;5050605;28;20036;-59
2023/02/14 07:49:40;;;;;;;11.55;7.63;;;180.10;2252.80;;;;;;5050780;28;20028;-59
2023/02/14 07:52:06;;;;;;;12.68;8.27;;;204.80;2252.80;;;;;;5050842;28;20060;-65
2023/02/14 07:54:32;;;;;;;10.60;7.28;;;204.80;2252.80;;;;;;5050506;28;20031;-60
2023/02/14 07:56:57;;;;;;;13.30;9.20;;;204.90;2252.80;;;;;;5050759;28;20036;-63
2023/02/14 07:59:23;;;;;;;17.20;9.50;;;205.00;2252.80;;;;;;5050340;28;20147;-59
2023/02/14 08:01:48;;;;;;;14.82;9.07;;;205.00;2252.80;;;;;;5050487;28;20025;-59
2023/02/14 08:04:14;;;;;;;336.02;201.68;;;205.10;2252.80;;;;;;5050495;28;20075;-66
2023/02/14 08:06:41;;;;;;;20.10;11.60;;;205.10;2252.80;;;;;;5050676;28;20199;-65
2023/02/14 08:09:08;;;;;;;20.42;11.52;;;205.10;2252.80;;;;;;5050729;28;20025;-66
2023/02/14 08:14:19;;;;;;;16.55;8.75;;;205.30;2252.80;;;;;;5050451;28;20043;-63
2023/02/14 08:16:45;;;;;;;17.33;8.35;;;205.20;2252.80;;;;;;5050342;28;20037;-62
2023/02/14 08:19:11;;;;;;;11.98;7.32;;;205.20;2252.80;;;;;;5050184;28;20512;-60
2023/02/14 08:21:36;;;;;;;15.68;8.30;;;205.20;2252.80;;;;;;5050426;28;20029;-64
2023/02/14 08:24:02;;;;;;;13.32;7.85;;;205.30;2252.80;;;;;;5050340;28;20025;-60
2023/02/14 08:26:28;;;;;;;13.20;7.95;;;205.30;2252.80;;;;;;5050287;28;20545;-60
2023/02/14 08:28:54;;;;;;;12.23;8.50;;;205.20;2252.80;;;;;;5050038;28;20555;-60
2023/02/14 08:31:25;;;;;;;13.68;8.38;;;205.20;2252.80;;;;;;5050046;28;20025;-60
2023/02/14 08:33:51;;;;;;;13.55;8.63;;;205.40;2252.80;;;;;;5050029;28;20028;-61
2023/02/14 08:36:16;;;;;;;14.00;9.43;;;205.40;2252.80;;;;;;5050234;28;20025;-61
2023/02/14 08:38:44;;;;;;;12.90;9.25;;;205.50;2252.80;;;;;;5049925;28;20018;-60
2023/02/14 08:41:10;;;;;;;16.00;9.05;;;205.50;2252.80;;;;;;5050182;28;20036;-59
2023/02/14 08:43:36;;;;;;;11.05;7.50;;;205.40;2252.80;;;;;;5050097;28;20055;-60
2023/02/14 08:46:02;;;;;;;14.98;9.15;;;205.50;2252.80;;;;;;5051602;28;20033;-60
2023/02/14 08:48:28;;;;;;;15.32;7.78;;;205.50;2252.80;;;;;;5054110;28;20075;-59
2023/02/14 08:50:54;;;;;;;16.05;9.88;;;205.50;2252.80;;;;;;5053872;28;20021;-59
2023/02/14 08:53:20;;;;;;;15.98;8.77;;;205.60;2252.80;;;;;;5054167;28;20021;-60
2023/02/14 08:55:47;;;;;;;45.55;30.58;;;205.50;2252.80;;;;;;5054125;28;20391;-60
2023/02/14 08:58:13;;;;;;;14.48;8.95;;;205.50;2252.80;;;;;;5053764;28;20029;-60
2023/02/14 09:00:38;;;;;;;30.50;20.85;;;205.70;2252.80;;;;;;5044017;28;20079;-59
2023/02/14 09:03:04;;;;;;;23.73;11.18;;;205.70;2252.80;;;;;;5042352;28;20025;-59
2023/02/14 09:05:30;;;;;;;22.77;15.00;;;205.60;2252.80;;;;;;5043341;28;20037;-59
2023/02/14 09:07:56;;;;;;;40.78;34.78;;;205.70;2252.80;;;;;;5041456;28;20068;-60
2023/02/14 09:10:22;;;;;;;15.80;8.75;;;205.60;2252.80;;;;;;5042653;28;20527;-61
2023/02/14 09:12:48;;;;;;;19.20;15.60;;;205.50;2252.80;;;;;;5024275;28;20060;-59
2023/02/14 09:15:14;;;;;;;25.35;15.57;;;205.60;2252.80;;;;;;5040245;28;20069;-60
2023/02/14 09:17:39;;;;;;;13.10;9.35;;;205.70;2252.80;;;;;;5043136;28;20133;-59
2023/02/14 09:20:08;;;;;;;19.75;12.93;;;205.70;2252.80;;;;;;5041818;28;20029;-60
2023/02/14 09:22:34;;;;;;;13.73;8.95;;;205.70;2252.80;;;;;;5040775;28;20035;-61
2023/02/14 09:25:00;;;;;;;12.48;8.57;;;230.40;2252.80;;;;;;5042541;28;20017;-59
2023/02/14 09:27:26;;;;;;;13.32;8.95;;;230.50;2252.80;;;;;;5040656;28;20033;-59
2023/02/14 09:29:52;;;;;;;17.23;10.43;;;230.60;2252.80;;;;;;5039912;28;20020;-60
2023/02/14 09:32:18;;;;;;;22.13;15.10;;;230.60;2252.80;;;;;;5041624;28;20475;-60
2023/02/14 09:34:44;;;;;;;12.52;8.55;;;230.60;2252.80;;;;;;5040561;28;20060;-59
2023/02/14 09:37:10;;;;;;;11.85;8.32;;;230.60;2252.80;;;;;;5042587;28;20053;-59
2023/02/14 09:39:37;;;;;;;15.23;9.93;;;230.60;2252.80;;;;;;5040551;28;20025;-60
2023/02/14 09:42:21;;;;;;;16.65;11.05;;;230.50;2252.80;;;;;;5039992;28;20033;-60
2023/02/14 09:44:56;;;;;;;21.10;10.70;;;230.60;2252.80;;;;;;5049476;28;20086;-60
2023/02/14 09:47:53;;;;;;;25.30;15.95;;;230.60;2252.80;;;;;;5048830;28;20384;-59
2023/02/14 09:50:29;;;;;;;13.98;10.27;;;230.50;2252.80;;;;;;5048215;28;20037;-59
2023/02/14 09:53:03;;;;;;;22.05;11.65;;;230.40;2252.80;;;;;;5047287;28;20475;-60
2023/02/14 09:55:38;;;;;;;14.10;10.30;;;230.60;2252.80;;;;;;5051624;28;20550;-59
2023/02/14 09:58:20;;;;;;;16.30;9.90;;;230.60;2252.80;;;;;;5050131;28;20475;-60
2023/02/14 10:00:52;;;;;;;22.80;13.23;;;230.60;2252.80;;;;;;5051458;28;20033;-60
2023/02/14 10:03:46;;;;;;;13.80;10.10;;;230.80;2252.80;;;;;;5051346;28;20060;-59
2023/02/14 10:06:25;;;;;;;28.77;23.23;;;230.80;2252.80;;;;;;5051474;28;20099;-60
2023/02/14 10:09:09;;;;;;;21.08;14.05;;;230.80;2252.80;;;;;;5051521;28;20040;-60
2023/02/14 10:11:35;;;;;;;22.73;13.32;;;230.80;2252.80;;;;;;5051244;28;20033;-60
2023/02/14 10:14:10;;;;;;;31.23;22.85;;;230.90;2252.80;;;;;;5051390;28;20122;-60
2023/02/14 10:16:48;;;;;;;20.33;14.02;;;230.80;2252.80;;;;;;5051264;28;20033;-60
2023/02/14 10:19:16;;;;;;;22.23;13.88;;;230.70;2252.80;;;;;;5051352;28;20078;-59
2023/02/14 10:21:55;;;;;;;16.55;10.18;;;230.70;2252.80;;;;;;5051194;28;20114;-60
2023/02/14 10:24:38;;;;;;;19.70;12.68;;;230.60;2252.80;;;;;;5051074;28;20183;-61
2023/02/14 10:27:28;;;;;;;13.70;10.65;;;230.70;2252.80;;;;;;5050997;28;20036;-60
2023/02/14 10:29:54;;;;;;;16.42;11.15;;;230.70;2252.80;;;;;;5051175;28;20094;-61
2023/02/14 10:32:39;;;;;;;13.20;8.73;;;230.60;2252.80;;;;;;5051133;28;20785;-60
2023/02/14 10:35:36;;;;;;;23.63;17.08;;;230.60;2252.80;;;;;;5050830;28;20108;-60
2023/02/14 10:38:16;;;;;;;21.77;13.65;;;230.60;2252.80;;;;;;4950592;29;20460;-60
2023/02/14 10:40:48;;;;;;;18.35;12.23;;;230.40;2252.80;;;;;;4950530;28;20110;-60
2023/02/14 10:43:37;;;;;;;22.98;13.70;;;230.60;2252.80;;;;;;4964262;28;20489;-60
2023/02/14 10:46:18;;;;;;;11.35;7.93;;;230.60;2252.80;;;;;;4989003;28;20050;-60
2023/02/14 10:49:32;;;;;;;20.25;11.90;;;230.70;2252.80;;;;;;4989201;28;20140;-61
2023/02/14 10:52:12;;;;;;;102.93;63.75;;;230.60;2252.80;;;;;;4969848;28;20037;-60
2023/02/14 10:54:44;;;;;;;62.88;34.20;;;230.70;2252.80;;;;;;4969889;28;20023;-60
2023/02/14 10:57:19;;;;;;;26.27;15.43;;;230.80;2252.80;;;;;;4969813;28;20038;-61
2023/02/14 10:59:45;;;;;;;23.50;16.33;;;230.90;2252.80;;;;;;4969649;28;20505;-60
2023/02/14 11:02:14;;;;;;;33.78;20.75;;;230.90;2252.80;;;;;;4969471;28;20038;-60
2023/02/14 11:04:41;;;;;;;14.75;12.75;;;230.80;2252.80;;;;;;4970267;28;20109;-60
2023/02/14 11:07:17;;;;;;;23.40;13.43;;;230.90;2252.80;;;;;;4971062;28;20038;-61
2023/02/14 11:09:43;;;;;;;37.88;19.10;;;230.80;2252.80;;;;;;4970174;28;20034;-60
2023/02/14 11:12:09;;;;;;;73.93;32.78;;;230.90;2252.80;;;;;;4970655;28;20043;-60
2023/02/14 11:14:38;;;;;;;24.08;14.75;;;231.00;2252.80;;;;;;4982536;28;20045;-60
2023/02/14 11:17:34;;;;;;;114.68;48.47;;;231.10;2252.80;;;;;;5009530;28;20071;-59
2023/02/14 11:20:08;;;;;;;68.22;33.20;;;231.30;2252.80;;;;;;4970439;28;20536;-60
2023/02/14 11:22:34;;;;;;;126.38;65.50;;;231.10;2252.80;;;;;;4970253;28;20135;-60
2023/02/14 11:25:24;;;;;;;26.00;15.45;;;231.20;2252.80;;;;;;4970555;28;20118;-60
2023/02/14 11:28:01;;;;;;;23.42;15.55;;;231.20;2252.80;;;;;;4987324;28;20033;-60
2023/02/14 11:30:38;;;;;;;16.25;12.93;;;256.00;2252.80;;;;;;5029219;28;20038;-60
2023/02/14 11:33:05;;;;;;;14.77;10.10;;;256.20;2252.80;;;;;;5028886;28;20025;-60
2023/02/14 11:35:35;;;;;;;16.90;12.45;;;231.30;2252.80;;;;;;5028812;28;20602;-60
2023/02/14 11:38:05;;;;;;;15.82;11.18;;;231.10;2252.80;;;;;;5028796;28;20188;-61
2023/02/14 11:40:32;;;;;;;18.42;12.30;;;231.10;2252.80;;;;;;5029143;28;20056;-60
2023/02/14 11:43:00;;;;;;;21.58;11.32;;;231.10;2252.80;;;;;;5028535;28;20543;-59
2023/02/14 11:45:26;;;;;;;15.45;10.45;;;231.10;2252.80;;;;;;5029235;28;20412;-60
2023/02/14 11:48:26;;;;;;;21.25;13.60;;;231.00;2252.80;;;;;;5028721;28;20435;-60
2023/02/14 11:51:08;;;;;;;17.25;11.73;;;231.00;2252.80;;;;;;5028504;28;20042;-60
2023/02/14 11:53:44;;;;;;;16.15;9.25;;;230.90;2252.80;;;;;;5028746;28;20051;-60
2023/02/14 11:56:11;;;;;;;16.27;10.75;;;230.90;2252.80;;;;;;5046371;28;20112;-60
2023/02/14 11:58:58;;;;;;;20.63;15.13;;;230.80;2252.80;;;;;;5070898;28;20052;-60
2023/02/14 12:01:25;;;;;;;23.88;15.32;;;230.90;2252.80;;;;;;5070124;28;20033;-60
2023/02/14 12:03:53;;;;;;;22.63;13.90;;;231.10;2252.80;;;;;;5070559;28;20027;-61
2023/02/14 12:06:28;;;;;;;25.23;16.98;;;231.20;2252.80;;;;;;5070658;28;20078;-60
2023/02/14 12:09:12;;;;;;;21.10;14.38;;;231.20;2252.80;;;;;;5070405;28;20032;-60
2023/02/14 12:11:38;;;;;;;23.80;11.93;;;231.10;2252.80;;;;;;5070519;28;20063;-60
2023/02/14 12:14:04;;;;;;;24.95;14.30;;;231.00;2252.80;;;;;;5070331;28;20112;-60
2023/02/14 12:16:47;;;;;;;20.40;15.23;;;230.90;2252.80;;;;;;5070625;28;20672;-60
2023/02/14 12:19:23;;;;;;;14.30;10.75;;;231.00;2252.80;;;;;;5070391;28;20060;-60
2023/02/14 12:22:06;;;;;;;25.40;16.00;;;230.80;2252.80;;;;;;5070104;28;20029;-60
2023/02/14 12:24:43;;;;;;;21.98;15.15;;;230.80;2252.80;;;;;;5070586;28;20025;-61
2023/02/14 12:27:36;;;;;;;32.20;18.33;;;230.80;2252.80;;;;;;5070397;28;20076;-60
2023/02/14 12:30:10;;;;;;;63.93;47.43;;;230.80;2252.80;;;;;;5070319;28;20211;-61
2023/02/14 12:32:43;;;;;;;32.25;22.77;;;230.80;2252.80;;;;;;5070282;28;20039;-60